Time;durP1;ratioP1;P1;durP2;ratioP2;P2;SDS_P1;SDS_P2;PMS_P1;PMS_P2;Temp;Humidity;BMP_temperature;BMP_pressure;BME280_temperature;BME280_humidity;BME280_pressure;Samples;Min_cycle;Max_cycle;Signal;HPM_P1;HPM_P2
2022/08/28 00:01:45;;;;;;;5.72;3.05;;;;;;;18.28;93.96;96111.41;5013700;28;20122;-79
2022/08/28 00:04:11;;;;;;;4.88;2.85;;;;;;;18.36;93.67;96104.78;5013190;28;20045;-79
2022/08/28 00:06:38;;;;;;;3.78;2.47;;;;;;;18.30;93.56;96111.81;5016180;28;20048;-79
2022/08/28 00:09:06;;;;;;;4.75;2.90;;;;;;;18.12;94.67;96103.31;5005119;28;20057;-79
2022/08/28 00:11:36;;;;;;;5.30;2.78;;;;;;;18.04;95.78;96114.59;5012075;28;20046;-79
2022/08/28 00:14:03;;;;;;;5.60;3.15;;;;;;;18.04;95.45;96114.59;5012196;28;20057;-78
2022/08/28 00:16:30;;;;;;;5.07;3.25;;;;;;;17.96;95.38;96109.00;5012828;28;20049;-80
2022/08/28 00:18:56;;;;;;;4.57;3.60;;;;;;;17.99;96.02;96108.22;5007051;28;20077;-79
2022/08/28 00:21:23;;;;;;;5.47;3.90;;;;;;;17.93;96.59;96108.94;4990731;28;20046;-79
2022/08/28 00:23:52;;;;;;;5.55;3.95;;;;;;;17.96;96.68;96111.75;4992797;28;20046;-78
2022/08/28 00:29:00;;;;;;;7.05;4.05;;;;;;;17.88;97.50;96100.97;4992428;28;20057;-81
2022/08/28 00:31:27;;;;;;;5.40;3.47;;;;;;;18.00;96.91;96104.31;4991682;28;20043;-79
2022/08/28 00:33:53;;;;;;;6.60;4.00;;;;;;;17.95;97.34;96101.88;4992252;28;20061;-79
2022/08/28 00:36:20;;;;;;;7.75;4.63;;;;;;;17.95;97.60;96101.88;4992180;28;20079;-78
2022/08/28 00:38:46;;;;;;;8.48;4.80;;;;;;;17.93;97.80;96098.69;4993085;28;20053;-79
2022/08/28 00:41:13;;;;;;;7.00;4.97;;;;;;;17.82;98.13;96097.75;4992296;28;20050;-78
2022/08/28 00:43:43;;;;;;;9.40;4.80;;;;;;;17.68;99.66;96098.28;4991408;28;20046;-79
2022/08/28 00:46:13;;;;;;;7.85;4.70;;;;;;;17.68;99.91;96097.50;4992111;28;20049;-81
2022/08/28 00:48:40;;;;;;;7.00;5.30;;;;;;;17.67;99.75;96102.22;4991227;28;20050;-79
2022/08/28 00:53:52;;;;;;;6.80;4.88;;;;;;;17.76;99.52;96092.94;4991406;28;20197;-79
2022/08/28 00:56:19;;;;;;;7.10;5.00;;;;;;;17.77;99.50;96100.81;4983118;28;20042;-80
2022/08/28 00:58:51;;;;;;;8.30;5.43;;;;;;;17.68;100.00;96097.50;5003914;28;20521;-80
2022/08/28 01:01:18;;;;;;;7.03;4.95;;;;;;;17.75;99.94;96097.66;4990382;28;20076;-80
2022/08/28 01:03:45;;;;;;;8.60;5.50;;;;;;;17.61;100.00;96102.91;4991294;28;20049;-80
2022/08/28 01:06:14;;;;;;;7.47;5.10;;;;;;;17.64;100.00;96096.66;4990634;28;20054;-79
2022/08/28 01:08:43;;;;;;;7.47;5.57;;;;;;;17.49;100.00;96098.41;4990783;28;20045;-81
2022/08/28 01:11:12;;;;;;;9.88;6.03;;;;;;;17.63;100.00;96101.38;4990369;28;20061;-78
2022/08/28 01:13:41;;;;;;;7.47;5.50;;;;;;;17.76;100.00;96099.25;4990910;28;20061;-81
2022/08/28 01:16:09;;;;;;;8.75;6.25;;;;;;;17.56;100.00;96094.97;4990048;28;20057;-78
2022/08/28 01:18:36;;;;;;;10.50;5.93;;;;;;;17.71;100.00;96094.03;4990869;28;20046;-80
2022/08/28 01:21:11;;;;;;;11.15;6.45;;;;;;;17.69;100.00;96093.59;4990564;28;20054;-78
2022/08/28 01:23:53;;;;;;;7.13;5.53;;;;;;;17.79;100.00;96097.69;4991589;28;20049;-81
2022/08/28 01:26:21;;;;;;;8.20;5.87;;;;;;;17.85;100.00;96097.00;4943766;28;1392291;-79
2022/08/28 01:28:48;;;;;;;7.50;5.30;;;;;;;17.87;99.75;96093.88;4993304;28;20042;-79
2022/08/28 01:31:16;;;;;;;8.02;5.40;;;;;;;17.89;99.60;96092.34;4992024;28;20042;-79
2022/08/28 01:33:45;;;;;;;7.65;4.95;;;;;;;17.94;99.18;96099.50;4992474;28;20387;-80
2022/08/28 01:36:14;;;;;;;7.55;5.40;;;;;;;17.86;99.40;96098.59;4992452;28;20049;-79
2022/08/28 01:38:43;;;;;;;8.55;6.15;;;;;;;17.86;99.19;96097.81;4992623;28;20066;-79
2022/08/28 01:41:13;;;;;;;7.88;5.70;;;;;;;17.93;98.99;96097.91;4991443;28;20076;-78
2022/08/28 01:43:41;;;;;;;7.38;5.80;;;;;;;17.96;98.93;96095.22;4991062;28;20093;-79
2022/08/28 01:46:10;;;;;;;8.90;5.57;;;;;;;18.00;99.00;96098.78;4990593;28;20054;-79
2022/08/28 01:48:39;;;;;;;9.48;6.07;;;;;;;17.84;99.01;96098.16;4990689;28;20620;-80
2022/08/28 01:51:06;;;;;;;7.93;5.50;;;;;;;17.90;99.14;96099.44;5010215;28;20046;-79
2022/08/28 01:53:33;;;;;;;6.80;5.40;;;;;;;18.02;98.74;96100.41;5014442;28;20053;-81
2022/08/28 01:56:01;;;;;;;7.93;5.57;;;;;;;18.02;98.36;96105.91;5014343;28;20053;-78
2022/08/28 01:58:30;;;;;;;7.53;4.78;;;;;;;18.07;98.63;96103.63;5015003;28;20049;-79
2022/08/28 02:00:57;;;;;;;6.05;4.80;;;;;;;18.13;98.79;96104.09;5014434;28;20046;-79
2022/08/28 02:03:24;;;;;;;8.38;5.25;;;;;;;18.03;98.20;96107.50;5013786;28;20513;-79
2022/08/28 02:05:52;;;;;;;6.70;4.45;;;;;;;17.92;98.78;96099.09;5014842;28;20057;-79
2022/08/28 02:08:18;;;;;;;9.32;5.25;;;;;;;17.99;98.84;96105.47;5014086;28;20397;-79
2022/08/28 02:10:45;;;;;;;6.00;4.30;;;;;;;18.03;99.07;96102.00;5014927;28;20065;-80
2022/08/28 02:13:12;;;;;;;4.45;4.05;;;;;;;18.10;98.84;96107.59;5013896;28;20052;-79
2022/08/28 02:15:42;;;;;;;5.55;3.80;;;;;;;18.14;98.32;96103.72;5014114;28;20053;-78
2022/08/28 02:18:08;;;;;;;5.28;4.20;;;;;;;18.07;97.53;96105.59;5014885;28;20057;-78
2022/08/28 02:20:35;;;;;;;5.60;4.32;;;;;;;17.97;98.15;96098.75;5000629;28;20516;-79
2022/08/28 02:23:02;;;;;;;8.52;4.90;;;;;;;18.02;98.12;96103.16;4994215;28;20054;-77
2022/08/28 02:25:29;;;;;;;5.03;3.55;;;;;;;18.09;98.06;96106.78;4994773;28;20054;-80
2022/08/28 02:27:56;;;;;;;6.70;4.28;;;;;;;18.13;97.96;96102.13;4994428;28;20050;-79
2022/08/28 02:30:22;;;;;;;9.27;4.80;;;;;;;17.92;98.27;96101.84;4993910;28;20065;-79
2022/08/28 02:32:51;;;;;;;6.30;4.40;;;;;;;18.05;98.05;96105.16;4994208;28;20053;-79
2022/08/28 02:35:19;;;;;;;7.65;5.07;;;;;;;18.00;98.12;96098.78;4993871;28;20050;-79
2022/08/28 02:37:47;;;;;;;5.82;4.70;;;;;;;17.99;98.08;96107.44;4995475;28;20047;-80
2022/08/28 02:40:14;;;;;;;6.28;4.38;;;;;;;18.06;98.35;96098.47;4994412;28;20421;-80
2022/08/28 02:42:42;;;;;;;5.15;4.18;;;;;;;18.14;98.16;96100.16;4994986;28;20050;-79
2022/08/28 02:45:10;;;;;;;7.40;4.68;;;;;;;18.15;97.92;96101.75;4994329;28;20046;-79
2022/08/28 02:47:37;;;;;;;6.40;4.30;;;;;;;18.16;97.74;96101.38;4994851;28;20050;-78
2022/08/28 02:50:06;;;;;;;6.70;4.38;;;;;;;18.20;98.05;96104.19;4997132;28;20050;-82
2022/08/28 02:52:33;;;;;;;5.50;3.92;;;;;;;18.27;97.82;96101.53;4995057;28;20069;-79
2022/08/28 02:54:59;;;;;;;5.93;4.55;;;;;;;18.26;97.43;96099.94;4994767;28;20679;-79
2022/08/28 02:57:26;;;;;;;6.63;5.00;;;;;;;18.29;97.55;96101.94;4994261;28;20697;-79
2022/08/28 02:59:53;;;;;;;6.22;4.63;;;;;;;18.29;97.97;96104.72;4994176;28;20430;-78
2022/08/28 03:02:19;;;;;;;7.10;4.75;;;;;;;18.27;97.77;96098.78;4993998;28;20058;-78
2022/08/28 03:04:47;;;;;;;5.78;4.65;;;;;;;18.34;97.87;96098.06;4993391;28;20045;-79
2022/08/28 03:07:15;;;;;;;6.68;4.78;;;;;;;18.35;97.72;96107.94;5000221;28;20053;-80
2022/08/28 03:09:42;;;;;;;7.22;5.38;;;;;;;18.30;97.98;96095.25;4995212;28;20043;-79
2022/08/28 03:12:12;;;;;;;7.18;5.47;;;;;;;18.35;98.04;96097.69;4993809;28;20066;-81
2022/08/28 03:14:39;;;;;;;8.05;5.57;;;;;;;18.36;97.93;96092.97;4993549;28;20053;-80
2022/08/28 03:17:06;;;;;;;7.07;4.93;;;;;;;18.39;98.14;96090.28;4993251;28;20054;-80
2022/08/28 03:19:32;;;;;;;9.73;6.55;;;;;;;18.39;97.79;96098.53;4995482;28;20050;-80
2022/08/28 03:21:59;;;;;;;8.82;5.78;;;;;;;18.34;97.79;96090.59;4993616;28;20081;-79
2022/08/28 03:24:26;;;;;;;7.70;5.43;;;;;;;18.37;97.63;96098.09;4993042;28;20046;-81
2022/08/28 03:26:52;;;;;;;7.90;5.90;;;;;;;18.39;97.71;96086.72;4993663;28;20081;-81
2022/08/28 03:29:19;;;;;;;7.05;5.20;;;;;;;18.38;97.66;96096.97;4993248;28;20474;-80
2022/08/28 03:31:45;;;;;;;7.80;5.30;;;;;;;18.38;97.48;96098.94;4997338;28;20056;-80
2022/08/28 03:34:12;;;;;;;8.55;6.05;;;;;;;18.28;97.91;96094.84;4995062;28;20077;-80
2022/08/28 03:36:38;;;;;;;7.75;5.47;;;;;;;18.30;98.27;96100.78;4993133;28;20557;-80
2022/08/28 03:39:06;;;;;;;7.03;5.50;;;;;;;18.37;98.34;96100.84;4992735;28;20054;-80
2022/08/28 03:41:34;;;;;;;7.85;5.65;;;;;;;18.37;97.54;96098.09;4992959;28;20057;-80
2022/08/28 03:44:02;;;;;;;9.73;6.38;;;;;;;18.34;97.68;96098.06;4993357;28;20053;-81
2022/08/28 03:46:31;;;;;;;8.98;5.68;;;;;;;18.36;97.84;96107.53;4993152;28;20122;-80
2022/08/28 03:48:59;;;;;;;7.45;5.85;;;;;;;18.35;98.17;96103.22;4996669;28;20073;-80
2022/08/28 03:51:28;;;;;;;7.90;6.47;;;;;;;18.36;98.08;96110.31;5013485;28;20069;-79
2022/08/28 03:53:54;;;;;;;10.10;6.78;;;;;;;18.31;98.02;96112.59;5013508;28;20056;-80
2022/08/28 03:56:25;;;;;;;9.40;6.60;;;;;;;18.30;98.08;96117.31;5014199;28;20042;-81
2022/08/28 03:58:57;;;;;;;12.55;6.95;;;;;;;18.28;98.04;96108.63;5013276;28;20061;-80
2022/08/28 04:01:24;;;;;;;13.07;7.00;;;;;;;18.22;98.20;96115.66;5012358;28;20045;-80
2022/08/28 04:03:51;;;;;;;9.20;6.97;;;;;;;18.22;98.44;96115.66;5011312;28;20053;-80
2022/08/28 04:06:18;;;;;;;8.30;6.53;;;;;;;18.21;98.52;96114.81;5012242;28;20608;-80
2022/08/28 04:08:45;;;;;;;9.45;6.57;;;;;;;18.26;98.96;96110.94;5012384;28;20515;-80
2022/08/28 04:11:11;;;;;;;9.77;6.15;;;;;;;18.28;98.95;96119.66;5012590;28;20489;-81
2022/08/28 04:13:38;;;;;;;8.30;6.40;;;;;;;18.25;98.93;96114.88;5012995;28;20073;-81
2022/08/28 04:16:09;;;;;;;7.28;5.50;;;;;;;18.25;99.12;96109.38;5012205;28;20056;-80
2022/08/28 04:18:37;;;;;;;9.40;6.28;;;;;;;18.29;98.93;96121.25;5013612;28;20048;-82
2022/08/28 04:21:06;;;;;;;9.05;6.53;;;;;;;18.28;98.79;96119.66;5011281;28;20648;-80
2022/08/28 04:23:33;;;;;;;10.48;6.60;;;;;;;18.26;99.10;96113.72;5012720;28;20046;-80
2022/08/28 04:26:00;;;;;;;9.43;6.63;;;;;;;18.14;99.29;96113.94;5012042;28;20046;-80
2022/08/28 04:28:27;;;;;;;10.23;7.38;;;;;;;18.19;99.45;96117.19;5011959;28;20034;-80
2022/08/28 04:30:54;;;;;;;8.90;6.40;;;;;;;18.21;99.57;96120.34;5011860;28;20049;-80
2022/08/28 04:33:24;;;;;;;11.00;7.03;;;;;;;18.25;99.33;96117.66;5011818;28;20046;-80
2022/08/28 04:35:51;;;;;;;8.52;6.78;;;;;;;18.30;99.46;96122.03;5011910;28;20054;-80
2022/08/28 04:38:17;;;;;;;17.98;8.02;;;;;;;18.28;99.15;96118.88;5011261;28;20045;-80
2022/08/28 04:40:44;;;;;;;14.88;8.40;;;;;;;18.26;99.19;96125.53;5011956;28;20053;-80
2022/08/28 04:43:11;;;;;;;9.07;7.10;;;;;;;18.28;99.15;96119.66;5011577;28;20531;-81
2022/08/28 04:45:39;;;;;;;9.90;6.78;;;;;;;18.34;99.54;96123.69;5011406;28;20046;-81
2022/08/28 04:48:06;;;;;;;13.15;7.43;;;;;;;18.39;99.56;96120.59;5011439;28;20041;-80
2022/08/28 04:50:35;;;;;;;13.13;8.00;;;;;;;18.39;99.01;96128.06;4998050;28;20517;-81
2022/08/28 04:53:01;;;;;;;10.48;7.93;;;;;;;18.38;98.87;96121.75;4992319;28;20088;-81
2022/08/28 04:55:28;;;;;;;11.85;8.48;;;;;;;18.40;98.75;96122.19;4992258;28;20046;-80
2022/08/28 04:57:55;;;;;;;11.30;8.35;;;;;;;18.30;98.56;96128.34;4992010;28;20596;-80
2022/08/28 05:00:22;;;;;;;12.38;8.32;;;;;;;18.35;98.77;96124.47;4991250;28;20501;-81
2022/08/28 05:02:49;;;;;;;12.38;8.90;;;;;;;18.34;98.99;96128.41;4991976;28;20049;-80
2022/08/28 05:05:15;;;;;;;10.68;7.75;;;;;;;18.38;98.60;96135.56;4991580;28;20419;-80
2022/08/28 05:07:43;;;;;;;11.75;8.68;;;;;;;18.43;99.15;96131.69;4992251;28;20065;-81
2022/08/28 05:10:09;;;;;;;12.75;9.07;;;;;;;18.42;98.96;96125.34;4991374;28;20051;-80
2022/08/28 05:12:36;;;;;;;11.77;7.88;;;;;;;18.40;99.17;96138.72;4992073;28;20554;-80
2022/08/28 05:15:03;;;;;;;14.68;9.07;;;;;;;18.36;99.22;96137.88;4991333;28;20042;-80
2022/08/28 05:17:29;;;;;;;14.25;9.15;;;;;;;18.40;99.74;96141.47;4992293;28;20046;-81
2022/08/28 05:19:56;;;;;;;12.43;8.27;;;;;;;18.36;99.32;96146.13;5002873;28;20050;-81
2022/08/28 05:22:23;;;;;;;16.05;10.02;;;;;;;18.39;99.63;96145.41;5012309;28;20053;-81
2022/08/28 05:24:50;;;;;;;10.82;8.43;;;;;;;18.40;99.66;96144.22;5011804;28;20069;-80
2022/08/28 05:27:17;;;;;;;13.98;8.73;;;;;;;18.38;99.45;96143.81;5012759;28;20050;-80
2022/08/28 05:29:43;;;;;;;14.95;9.25;;;;;;;18.47;99.49;96149.81;5016149;28;20054;-81
2022/08/28 05:32:10;;;;;;;10.85;8.45;;;;;;;18.45;99.50;96152.19;5016261;28;20045;-81
2022/08/28 05:34:36;;;;;;;15.40;10.13;;;;;;;18.48;99.31;96154.19;5015669;28;20433;-81
2022/08/28 05:37:03;;;;;;;15.40;9.18;;;;;;;18.49;99.04;96153.03;5011512;28;20690;-81
2022/08/28 05:39:29;;;;;;;14.75;9.73;;;;;;;18.47;99.25;96149.03;5011704;28;20128;-81
2022/08/28 05:41:57;;;;;;;15.77;10.55;;;;;;;18.53;99.01;96161.31;5011409;28;20056;-80
2022/08/28 05:44:23;;;;;;;14.27;9.32;;;;;;;18.53;99.22;96164.06;5010707;28;20674;-80
2022/08/28 05:46:50;;;;;;;12.75;9.55;;;;;;;18.60;99.58;96163.41;5010984;28;20460;-81
2022/08/28 05:49:18;;;;;;;20.08;13.05;;;;;;;18.49;99.21;96161.28;5006003;28;20050;-80
2022/08/28 05:51:46;;;;;;;22.70;12.73;;;;;;;18.39;100.00;96159.19;4992088;28;20073;-80
2022/08/28 05:54:13;;;;;;;21.67;13.85;;;;;;;18.25;100.00;96162.53;4991487;28;20051;-80
2022/08/28 05:56:40;;;;;;;21.48;14.45;;;;;;;18.26;100.00;96160.56;4991721;28;20046;-79
2022/08/28 05:59:10;;;;;;;21.98;14.68;;;;;;;18.20;100.00;96165.59;4991587;28;20517;-80
2022/08/28 06:01:39;;;;;;;20.35;13.10;;;;;;;18.21;100.00;96169.16;4992453;28;20054;-81
2022/08/28 06:04:08;;;;;;;24.42;14.27;;;;;;;18.22;100.00;96160.53;4992630;28;20054;-81
2022/08/28 06:06:37;;;;;;;21.02;14.15;;;;;;;18.29;100.00;96170.06;4992210;28;20790;-81
2022/08/28 06:09:06;;;;;;;19.52;13.23;;;;;;;18.30;100.00;96171.66;4990951;28;20069;-80
2022/08/28 06:11:33;;;;;;;26.23;15.93;;;;;;;18.30;100.00;96169.69;4991937;28;20062;-81
2022/08/28 06:14:01;;;;;;;22.52;15.27;;;;;;;18.26;100.00;96174.34;4993907;28;20417;-83
2022/08/28 06:16:30;;;;;;;20.88;14.90;;;;;;;18.21;100.00;96164.44;4992179;28;20105;-81
2022/08/28 06:18:57;;;;;;;23.58;15.15;;;;;;;18.17;100.00;96168.34;4995123;28;20046;-81
2022/08/28 06:21:24;;;;;;;22.67;15.68;;;;;;;18.09;100.00;96172.13;4992680;28;20054;-80
2022/08/28 06:23:50;;;;;;;22.25;14.82;;;;;;;18.13;100.00;96175.75;4992701;28;20144;-79
2022/08/28 06:26:17;;;;;;;23.52;16.17;;;;;;;18.09;100.00;96172.13;4989145;28;20054;-79
2022/08/28 06:28:43;;;;;;;24.98;15.73;;;;;;;18.17;100.00;96179.34;4991045;28;20054;-78
2022/08/28 06:31:10;;;;;;;22.27;15.68;;;;;;;18.14;100.00;96177.34;4990350;28;20506;-80
2022/08/28 06:33:37;;;;;;;24.48;15.65;;;;;;;18.10;100.00;96179.22;4990631;28;20406;-80
2022/08/28 06:36:06;;;;;;;24.80;15.45;;;;;;;18.03;100.00;96179.94;4990235;28;20050;-79
2022/08/28 06:38:33;;;;;;;22.73;15.00;;;;;;;18.03;100.00;96177.16;4990745;28;20051;-80
2022/08/28 06:40:59;;;;;;;21.65;14.77;;;;;;;18.08;100.00;96179.59;4991143;28;20542;-79
2022/08/28 06:43:28;;;;;;;26.15;16.02;;;;;;;18.17;100.00;96180.16;4991133;28;20066;-82
2022/08/28 06:45:57;;;;;;;22.35;13.88;;;;;;;18.23;100.00;96183.38;4992227;28;20051;-79
2022/08/28 06:48:26;;;;;;;28.38;15.80;;;;;;;18.22;100.00;96184.53;4990580;28;20046;-80
2022/08/28 06:50:56;;;;;;;26.08;15.85;;;;;;;18.22;100.00;96187.31;4995394;28;20046;-83
2022/08/28 06:53:26;;;;;;;24.90;15.98;;;;;;;18.24;100.00;96187.72;4998123;28;20054;-82
2022/08/28 06:55:58;;;;;;;21.90;14.75;;;;;;;18.29;100.00;96192.91;4998626;28;20058;-81
2022/08/28 06:58:25;;;;;;;25.08;16.02;;;;;;;18.25;100.00;96194.81;4994547;28;20072;-78
2022/08/28 07:01:00;;;;;;;21.83;16.52;;;;;;;18.27;100.00;96195.25;4990763;28;20061;-80
2022/08/28 07:03:27;;;;;;;26.83;15.80;;;;;;;18.26;100.00;96204.66;4991812;28;20050;-79
2022/08/28 07:05:57;;;;;;;26.70;17.45;;;;;;;18.25;100.00;96203.88;4992947;28;20721;-79
2022/08/28 07:08:24;;;;;;;27.88;17.15;;;;;;;18.25;100.00;96208.59;4991856;28;20069;-79
2022/08/28 07:10:50;;;;;;;26.42;16.70;;;;;;;18.24;100.00;96201.50;4992165;28;20050;-81
2022/08/28 07:13:17;;;;;;;31.13;16.55;;;;;;;18.18;100.00;96208.50;4992612;28;20054;-78
2022/08/28 07:15:43;;;;;;;27.10;16.67;;;;;;;18.14;100.00;96211.19;4991290;28;20046;-78
2022/08/28 07:18:11;;;;;;;22.65;15.80;;;;;;;18.19;100.00;96215.59;4990383;28;20084;-79
2022/08/28 07:20:37;;;;;;;19.95;13.98;;;;;;;18.30;100.00;96211.03;4991683;28;20050;-79
2022/08/28 07:23:05;;;;;;;22.10;14.27;;;;;;;18.36;100.00;96217.81;4991728;28;20509;-79
2022/08/28 07:25:32;;;;;;;23.52;14.90;;;;;;;18.45;100.00;96212.03;4991080;28;20043;-79
2022/08/28 07:27:59;;;;;;;26.05;16.50;;;;;;;18.40;100.00;96209.59;4991030;28;20046;-79
2022/08/28 07:30:27;;;;;;;27.42;15.73;;;;;;;18.21;100.00;96208.53;4990004;28;20054;-79
2022/08/28 07:32:54;;;;;;;25.70;16.40;;;;;;;18.22;100.00;96212.09;4990592;28;20609;-80
2022/08/28 07:35:20;;;;;;;22.85;16.27;;;;;;;18.20;100.00;96217.19;4990118;28;20418;-79
2022/08/28 07:37:47;;;;;;;24.70;15.40;;;;;;;18.19;100.00;96215.59;5007452;28;20605;-77
2022/08/28 07:40:17;;;;;;;24.45;16.20;;;;;;;18.33;100.00;96218.56;5008642;28;20053;-77
2022/08/28 07:45:28;;;;;;;25.05;15.77;;;;;;;18.38;100.00;96225.72;5009084;28;20057;-79
2022/08/28 07:47:56;;;;;;;27.35;16.63;;;;;;;18.45;100.00;96215.59;5009630;28;20052;-77
2022/08/28 07:50:23;;;;;;;24.17;14.90;;;;;;;18.47;100.00;96227.03;5008823;28;20132;-78
2022/08/28 07:52:49;;;;;;;22.40;15.18;;;;;;;18.61;99.26;96222.91;5009525;28;20042;-79
2022/08/28 07:55:17;;;;;;;21.70;13.48;;;;;;;18.78;98.95;96222.34;5008593;28;20689;-78
2022/08/28 07:57:43;;;;;;;22.65;13.52;;;;;;;18.91;95.56;96229.25;5008697;28;20208;-81
2022/08/28 08:00:12;;;;;;;18.50;13.55;;;;;;;18.95;94.47;96230.09;5011244;28;20065;-79
2022/08/28 08:02:40;;;;;;;20.52;13.50;;;;;;;18.99;93.32;96236.41;5011139;28;20085;-82
2022/08/28 08:05:07;;;;;;;18.73;13.45;;;;;;;19.06;93.26;96230.22;5013848;28;20046;-81
2022/08/28 08:07:33;;;;;;;17.83;12.77;;;;;;;19.13;93.32;96226.75;5015736;28;20050;-78
2022/08/28 08:09:59;;;;;;;18.83;12.48;;;;;;;19.24;92.13;96236.72;5008998;28;20046;-77
2022/08/28 08:12:27;;;;;;;19.35;12.35;;;;;;;19.36;91.73;96232.13;5008507;28;20054;-79
2022/08/28 08:14:55;;;;;;;19.95;12.85;;;;;;;19.35;91.48;96239.59;5009483;28;20052;-78
2022/08/28 08:17:21;;;;;;;20.50;13.55;;;;;;;19.42;91.99;96241.63;5008119;28;20365;-79
2022/08/28 08:19:47;;;;;;;20.67;14.02;;;;;;;19.38;91.75;96246.34;5000475;28;20505;-79
2022/08/28 08:22:14;;;;;;;17.90;12.50;;;;;;;19.43;92.46;96241.28;4990125;28;20051;-80
2022/08/28 08:24:41;;;;;;;17.33;13.05;;;;;;;19.48;91.40;96248.44;4990646;28;20177;-79
2022/08/28 08:27:09;;;;;;;15.15;11.82;;;;;;;19.54;90.74;96258.75;4990153;28;20050;-81
2022/08/28 08:29:40;;;;;;;19.23;12.82;;;;;;;19.60;89.30;96248.19;4990575;28;20082;-79
2022/08/28 08:32:09;;;;;;;18.63;11.98;;;;;;;19.56;86.68;96253.63;4988722;28;20061;-79
2022/08/28 08:34:38;;;;;;;16.63;12.18;;;;;;;19.58;87.49;96253.28;4989237;28;20054;-78
2022/08/28 08:37:07;;;;;;;18.20;11.63;;;;;;;19.65;88.20;96252.59;4988665;28;20057;-79
2022/08/28 08:39:35;;;;;;;19.15;12.15;;;;;;;19.71;87.13;96253.81;4992470;28;20046;-77
2022/08/28 08:42:04;;;;;;;17.40;11.90;;;;;;;19.75;86.87;96254.66;4997629;28;20045;-74
2022/08/28 08:44:34;;;;;;;20.80;14.00;;;;;;;19.70;86.70;96253.03;4999245;28;20058;-78
2022/08/28 08:47:11;;;;;;;16.60;11.98;;;;;;;19.70;86.16;96257.75;5009416;28;20051;-81
2022/08/28 08:49:39;;;;;;;16.42;11.23;;;;;;;19.79;86.57;96261.03;5005134;28;20677;-81
2022/08/28 08:52:24;;;;;;;16.15;11.55;;;;;;;19.84;86.53;96262.63;5017823;28;20053;-81
2022/08/28 08:55:03;;;;;;;18.70;12.23;;;;;;;19.78;85.57;96260.22;5018523;28;20057;-82
2022/08/28 08:57:31;;;;;;;17.83;11.82;;;;;;;19.76;85.58;96256.25;5008571;28;20066;-81
2022/08/28 08:59:58;;;;;;;17.20;11.35;;;;;;;19.75;84.83;96266.50;5021956;28;20057;-81
2022/08/28 09:02:32;;;;;;;18.17;12.82;;;;;;;19.73;86.15;96268.03;4996647;28;20128;-79
2022/08/28 09:05:03;;;;;;;15.60;11.90;;;;;;;19.70;86.26;96279.88;4990044;28;20697;-80
2022/08/28 09:07:37;;;;;;;16.48;11.80;;;;;;;19.73;86.34;96284.63;4988071;28;20046;-80
2022/08/28 09:10:05;;;;;;;16.40;11.93;;;;;;;19.79;86.66;96283.91;4986609;28;20068;-79
2022/08/28 09:12:49;;;;;;;15.70;11.55;;;;;;;19.75;86.96;96282.28;4986646;28;20042;-79
2022/08/28 09:15:26;;;;;;;16.23;11.82;;;;;;;19.77;87.93;96279.94;4986129;28;20049;-78
2022/08/28 09:17:57;;;;;;;13.50;10.43;;;;;;;19.76;87.50;96283.88;4986677;28;20502;-78
2022/08/28 09:20:26;;;;;;;17.52;12.32;;;;;;;19.82;85.64;96287.88;5005718;28;20054;-79
2022/08/28 09:22:53;;;;;;;16.52;11.95;;;;;;;19.79;85.73;96283.13;5007081;28;20414;-79
2022/08/28 09:25:48;;;;;;;17.23;11.73;;;;;;;19.72;86.40;96283.81;5006311;28;20098;-79
2022/08/28 09:28:18;;;;;;;16.95;11.60;;;;;;;19.71;87.15;96285.00;5007515;28;20054;-80
2022/08/28 09:30:53;;;;;;;16.85;12.60;;;;;;;19.79;84.94;96288.66;5007777;28;20420;-81
2022/08/28 09:33:36;;;;;;;18.45;13.00;;;;;;;19.86;85.17;96288.72;5003816;28;20054;-79
2022/08/28 09:36:30;;;;;;;15.90;12.68;;;;;;;19.96;84.40;96285.25;4986959;28;20133;-79
2022/08/28 09:39:12;;;;;;;16.17;11.82;;;;;;;19.94;84.51;96286.78;4986490;28;20422;-78
2022/08/28 09:44:28;;;;;;;15.05;11.68;;;;;;;20.12;84.96;96284.22;4987181;28;20057;-80
2022/08/28 09:46:54;;;;;;;15.88;11.30;;;;;;;20.14;84.82;96298.44;4987685;28;20050;-80
2022/08/28 09:49:28;;;;;;;16.02;11.57;;;;;;;20.19;83.20;96289.78;4988567;28;20046;-81
2022/08/28 09:51:58;;;;;;;16.67;11.57;;;;;;;20.28;84.82;96293.81;4987597;28;20046;-80
2022/08/28 09:54:31;;;;;;;17.73;12.50;;;;;;;20.21;83.05;96293.00;4987289;28;20050;-80
2022/08/28 09:56:58;;;;;;;16.70;11.20;;;;;;;20.34;82.96;96291.50;4987415;28;20058;-80
2022/08/28 09:59:27;;;;;;;16.85;12.60;;;;;;;20.28;84.50;96287.50;4985567;28;20533;-80
2022/08/28 10:02:11;;;;;;;16.77;11.82;;;;;;;20.25;82.94;96288.25;4988501;28;20054;-80
2022/08/28 10:04:52;;;;;;;16.73;12.20;;;;;;;20.17;83.14;96292.16;4987761;28;20046;-80
2022/08/28 10:07:29;;;;;;;17.88;12.80;;;;;;;19.90;83.78;96295.06;4987466;28;20072;-80
2022/08/28 10:10:15;;;;;;;18.23;13.02;;;;;;;19.84;85.09;96299.34;4987974;28;20050;-80
2022/08/28 10:12:50;;;;;;;20.67;12.98;;;;;;;19.79;86.02;96297.72;4987399;28;20494;-79
2022/08/28 10:15:25;;;;;;;19.75;12.75;;;;;;;19.59;86.96;96299.09;4991116;28;20837;-80
2022/08/28 10:18:20;;;;;;;23.27;13.88;;;;;;;19.61;87.25;96302.25;4995971;28;20537;-80
2022/08/28 10:20:55;;;;;;;17.08;13.18;;;;;;;19.64;87.34;96297.97;5003614;28;20046;-80
2022/08/28 10:23:38;;;;;;;18.98;13.77;;;;;;;19.68;88.62;96302.34;5006584;28;20064;-81
2022/08/28 10:26:20;;;;;;;18.42;13.18;;;;;;;19.69;87.30;96300.38;5010498;28;20050;-80
2022/08/28 10:28:57;;;;;;;20.35;13.45;;;;;;;19.72;85.62;96299.59;5007672;28;20046;-81
2022/08/28 10:31:35;;;;;;;16.38;11.20;;;;;;;19.85;86.08;96298.19;5007671;28;20046;-81
2022/08/28 10:34:17;;;;;;;17.67;12.70;;;;;;;19.95;87.34;96297.50;5007424;28;20571;-81
2022/08/28 10:36:49;;;;;;;15.52;11.48;;;;;;;20.03;85.87;96304.66;5005067;28;20760;-81
2022/08/28 10:39:27;;;;;;;16.42;11.43;;;;;;;20.14;85.63;96306.72;4998749;28;20077;-78
2022/08/28 10:41:57;;;;;;;14.32;10.38;;;;;;;20.29;85.94;96294.63;4996458;28;20050;-80
2022/08/28 10:44:30;;;;;;;20.92;13.77;;;;;;;20.13;85.07;96307.91;4996269;28;20044;-79
2022/08/28 10:46:58;;;;;;;19.07;13.33;;;;;;;20.08;84.75;96296.03;4995163;28;20050;-80
2022/08/28 10:49:30;;;;;;;19.67;12.15;;;;;;;20.01;83.26;96309.00;4994626;28;20049;-80
2022/08/28 10:52:03;;;;;;;20.27;14.15;;;;;;;20.01;83.82;96320.84;4996395;28;20077;-80
2022/08/28 10:54:38;;;;;;;21.92;13.60;;;;;;;19.94;83.59;96306.13;4994299;28;20054;-79
2022/08/28 10:57:12;;;;;;;18.20;12.50;;;;;;;19.90;85.05;96311.66;4994217;28;20050;-80
2022/08/28 10:59:41;;;;;;;22.65;12.27;;;;;;;19.83;84.17;96316.28;4994837;28;20038;-80
2022/08/28 11:02:12;;;;;;;17.45;12.68;;;;;;;19.78;84.78;96314.66;4993568;28;20510;-80
2022/08/28 11:04:39;;;;;;;21.13;12.20;;;;;;;19.86;83.50;96321.06;4994405;28;20053;-79
2022/08/28 11:07:14;;;;;;;16.08;11.75;;;;;;;19.90;84.03;96311.66;4999138;28;20448;-80
2022/08/28 11:09:45;;;;;;;17.63;11.18;;;;;;;20.02;82.96;96314.13;4994241;28;20065;-79
2022/08/28 11:12:33;;;;;;;18.55;11.48;;;;;;;20.01;83.40;96315.31;4993729;28;20054;-80
2022/08/28 11:15:40;;;;;;;13.50;10.93;;;;;;;19.97;82.67;96311.72;4994077;28;20521;-80
2022/08/28 11:18:39;;;;;;;14.73;10.30;;;;;;;19.98;82.66;96318.03;4994969;28;20046;-80
2022/08/28 11:21:13;;;;;;;13.93;10.73;;;;;;;20.05;81.60;96318.91;4996094;28;20046;-81
2022/08/28 11:23:47;;;;;;;14.15;11.18;;;;;;;20.07;81.79;96316.56;4994327;28;20565;-81
2022/08/28 11:26:22;;;;;;;14.30;10.68;;;;;;;19.97;80.99;96311.72;4992312;28;20053;-80
2022/08/28 11:28:49;;;;;;;15.43;10.55;;;;;;;19.96;81.53;96314.88;4993097;28;20050;-79
2022/08/28 11:31:38;;;;;;;16.67;10.57;;;;;;;19.92;80.64;96312.06;4992564;28;20073;-80
2022/08/28 11:34:05;;;;;;;12.52;10.20;;;;;;;19.91;81.24;96313.25;4990651;28;20624;-78
2022/08/28 11:37:02;;;;;;;15.02;9.88;;;;;;;19.91;80.42;96310.47;4990638;28;20053;-78
2022/08/28 11:39:29;;;;;;;15.77;10.15;;;;;;;19.97;81.68;96317.25;4990122;28;20046;-80
2022/08/28 11:42:35;;;;;;;16.75;10.32;;;;;;;19.90;81.19;96317.19;4989080;28;20046;-78
2022/08/28 11:45:01;;;;;;;14.77;9.75;;;;;;;20.00;80.09;96322.03;4989369;28;20558;-76